Time;durP1;ratioP1;P1;durP2;ratioP2;P2;SDS_P1;SDS_P2;PMS_P1;PMS_P2;Temp;Humidity;BMP_temperature;BMP_pressure;BME280_temperature;BME280_humidity;BME280_pressure;Samples;Min_cycle;Max_cycle;Signal;HPM_P1;HPM_P2
2023/01/30 00:01:16;;;;;;;33.30;22.23;;;6.00;99.90;;;;;;5102252;28;20080;-67
2023/01/30 00:03:42;;;;;;;34.97;22.35;;;6.00;99.90;;;;;;5100749;28;21393;-67
2023/01/30 00:06:08;;;;;;;35.13;22.83;;;6.00;99.90;;;;;;5101342;28;20116;-67
2023/01/30 00:08:33;;;;;;;36.42;21.17;;;6.00;99.90;;;;;;5103202;28;20035;-67
2023/01/30 00:11:11;;;;;;;31.23;20.50;;;6.00;99.90;;;;;;5115495;27;20492;-66
2023/01/30 00:13:37;;;;;;;30.98;21.45;;;6.10;99.90;;;;;;5100202;28;20556;-66
2023/01/30 00:16:03;;;;;;;34.10;21.77;;;6.10;99.90;;;;;;5103325;27;20079;-66
2023/01/30 00:18:30;;;;;;;35.88;20.38;;;6.10;99.90;;;;;;5105010;28;20118;-67
2023/01/30 00:21:00;;;;;;;34.10;21.42;;;6.10;99.90;;;;;;5115208;27;20104;-67
2023/01/30 00:23:26;;;;;;;32.00;20.65;;;6.10;99.90;;;;;;5122539;27;20039;-66
2023/01/30 00:25:52;;;;;;;34.67;21.50;;;6.10;99.90;;;;;;5116178;27;20039;-66
2023/01/30 00:28:18;;;;;;;34.17;21.73;;;6.10;99.90;;;;;;5103526;27;20047;-66
2023/01/30 00:30:44;;;;;;;37.63;21.30;;;6.10;99.90;;;;;;5097453;28;20051;-65
2023/01/30 00:33:10;;;;;;;30.45;20.33;;;6.10;99.90;;;;;;5100940;28;20058;-65
2023/01/30 00:35:35;;;;;;;33.00;20.95;;;6.10;99.90;;;;;;5100494;28;20043;-66
2023/01/30 00:38:01;;;;;;;31.35;20.73;;;6.20;99.90;;;;;;5098464;28;20044;-66
2023/01/30 00:40:28;;;;;;;29.80;20.02;;;6.20;99.90;;;;;;5084867;28;20078;-67
2023/01/30 00:48:26;;;;;;;30.30;18.67;;;6.20;99.90;;;;;;5116249;27;20037;-65
2023/01/30 00:50:52;;;;;;;31.17;18.38;;;6.20;99.90;;;;;;5104998;28;20125;-66
2023/01/30 00:53:17;;;;;;;26.90;17.10;;;6.20;99.90;;;;;;5113608;28;20070;-66
2023/01/30 00:55:44;;;;;;;26.80;17.48;;;6.20;99.90;;;;;;5099256;28;20134;-66
2023/01/30 00:58:10;;;;;;;27.42;16.80;;;6.30;99.90;;;;;;5098030;28;20106;-66
2023/01/30 01:00:36;;;;;;;25.45;15.15;;;6.30;99.90;;;;;;5105232;28;20444;-66
2023/01/30 01:03:02;;;;;;;23.73;15.32;;;6.30;99.90;;;;;;5110530;28;20032;-66
2023/01/30 01:05:28;;;;;;;25.55;14.98;;;6.40;99.90;;;;;;5112100;28;20039;-66
2023/01/30 01:07:54;;;;;;;27.50;14.70;;;6.40;99.90;;;;;;5122728;28;20035;-65
2023/01/30 01:10:21;;;;;;;25.98;14.68;;;6.50;99.90;;;;;;5079338;28;20040;-67
2023/01/30 01:12:48;;;;;;;24.52;14.52;;;6.40;99.90;;;;;;5100288;28;20044;-65
2023/01/30 01:15:14;;;;;;;24.42;14.60;;;6.50;99.90;;;;;;5096609;28;20036;-66
2023/01/30 01:17:41;;;;;;;31.08;16.17;;;6.40;99.90;;;;;;5100168;28;20040;-66
2023/01/30 01:20:08;;;;;;;26.25;14.55;;;6.40;99.90;;;;;;5093980;28;20039;-65
2023/01/30 01:22:34;;;;;;;25.17;14.65;;;6.40;99.90;;;;;;5081462;28;20039;-66
2023/01/30 01:24:59;;;;;;;27.20;14.48;;;6.40;99.90;;;;;;5106806;28;20482;-65
2023/01/30 01:27:25;;;;;;;26.77;14.98;;;6.30;99.90;;;;;;5118880;27;20040;-66
2023/01/30 01:29:51;;;;;;;26.48;14.20;;;6.30;99.90;;;;;;5099024;28;20056;-66
2023/01/30 01:32:16;;;;;;;24.30;12.93;;;6.30;99.90;;;;;;5114948;28;20047;-65
2023/01/30 01:34:42;;;;;;;22.40;12.77;;;6.30;99.90;;;;;;5112539;28;20047;-67
2023/01/30 01:37:08;;;;;;;26.92;12.15;;;6.30;99.90;;;;;;5120829;28;20119;-66
2023/01/30 01:42:17;;;;;;;22.30;10.30;;;6.30;99.90;;;;;;5109162;28;20186;-65
2023/01/30 01:45:20;;;;;;;20.02;9.43;;;6.30;99.90;;;;;;5117833;28;20097;-65
2023/01/30 01:47:52;;;;;;;22.25;8.68;;;6.30;99.90;;;;;;4990679;28;20569;-65
2023/01/30 01:50:29;;;;;;;;;;;6.40;99.90;;;;;;5014716;28;20069;-67
2023/01/30 01:52:59;;;;;;;17.25;7.63;;;6.40;99.90;;;;;;5010655;28;19971;-66
2023/01/30 01:55:26;;;;;;;20.83;7.63;;;6.40;99.90;;;;;;5012277;28;20520;-65
2023/01/30 01:58:15;;;;;;;19.77;7.78;;;6.40;99.90;;;;;;5009430;28;20049;-65
2023/01/30 02:00:40;;;;;;;17.42;7.25;;;6.40;99.90;;;;;;5011618;28;20067;-65
2023/01/30 02:03:13;;;;;;;13.27;7.43;;;6.40;99.90;;;;;;5011794;28;20076;-65
2023/01/30 02:05:42;;;;;;;19.60;7.35;;;6.40;99.90;;;;;;5012430;28;20117;-66
2023/01/30 02:08:12;;;;;;;21.52;7.95;;;6.30;99.90;;;;;;5010131;28;20045;-65
2023/01/30 02:10:44;;;;;;;20.92;7.70;;;6.40;99.90;;;;;;5012849;28;20045;-65
2023/01/30 02:13:10;;;;;;;16.17;6.80;;;6.30;99.90;;;;;;5011655;28;20040;-64
2023/01/30 02:15:35;;;;;;;18.20;6.65;;;6.30;99.90;;;;;;5014359;28;20415;-64
2023/01/30 02:18:01;;;;;;;17.42;7.13;;;6.30;99.90;;;;;;5010695;28;20046;-65
2023/01/30 02:21:04;;;;;;;17.60;6.22;;;6.30;99.90;;;;;;5017319;28;20040;-66
2023/01/30 02:23:57;;;;;;;14.60;6.20;;;6.30;99.90;;;;;;5068717;27;20078;-65
2023/01/30 02:26:41;;;;;;;16.02;6.32;;;6.30;99.90;;;;;;5108876;28;20039;-65
2023/01/30 02:29:44;;;;;;;16.98;5.97;;;6.30;99.90;;;;;;5108800;28;20446;-67
2023/01/30 02:32:23;;;;;;;13.45;6.20;;;6.30;99.90;;;;;;5106064;28;20083;-66
2023/01/30 02:35:23;;;;;;;14.98;5.80;;;6.30;99.90;;;;;;5106895;27;20127;-66
2023/01/30 02:38:53;;;;;;;14.68;5.80;;;6.30;99.90;;;;;;5106461;28;20050;-65
2023/01/30 02:41:21;;;;;;;14.25;5.53;;;6.30;99.90;;;;;;4970676;28;20444;-67
2023/01/30 02:44:13;;;;;;;15.57;5.70;;;6.30;99.90;;;;;;4985387;28;20120;-66
2023/01/30 02:47:01;;;;;;;16.20;6.00;;;6.30;99.90;;;;;;4987154;28;20093;-64
2023/01/30 02:50:09;;;;;;;16.13;5.60;;;6.30;99.90;;;;;;4964722;28;20053;-67
2023/01/30 02:52:36;;;;;;;23.60;5.63;;;6.30;99.90;;;;;;4894924;29;20196;-65
2023/01/30 02:55:08;;;;;;;18.40;5.70;;;6.30;99.90;;;;;;4911027;29;20044;-66
2023/01/30 02:57:34;;;;;;;;;;;6.30;99.90;;;;;;4896747;29;20500;-66
2023/01/30 03:00:03;;;;;;;15.45;6.13;;;6.30;99.90;;;;;;4909210;29;19923;-65
2023/01/30 03:03:05;;;;;;;16.02;5.97;;;6.30;99.90;;;;;;4895725;29;20052;-66
2023/01/30 03:05:51;;;;;;;16.35;5.80;;;6.40;99.90;;;;;;4912937;29;20071;-66
2023/01/30 03:08:23;;;;;;;18.98;5.25;;;6.40;99.90;;;;;;4895001;29;20052;-66
2023/01/30 03:11:02;;;;;;;25.15;7.32;;;6.40;99.90;;;;;;4893400;29;20059;-65
2023/01/30 03:13:48;;;;;;;20.17;6.03;;;6.40;99.90;;;;;;4895109;29;20051;-65
2023/01/30 03:16:24;;;;;;;19.15;5.38;;;6.40;99.90;;;;;;4937531;28;20048;-66
2023/01/30 03:18:50;;;;;;;24.27;5.43;;;6.40;99.90;;;;;;5046339;28;20417;-66
2023/01/30 03:21:16;;;;;;;18.08;5.28;;;6.50;99.90;;;;;;5011719;28;20052;-66
2023/01/30 03:23:44;;;;;;;21.38;5.78;;;6.50;99.90;;;;;;5046708;28;20041;-65
2023/01/30 03:26:16;;;;;;;18.15;5.03;;;6.50;99.90;;;;;;5029374;28;20454;-66
2023/01/30 03:28:42;;;;;;;17.30;5.63;;;6.50;99.90;;;;;;5066189;28;20055;-66
2023/01/30 03:31:09;;;;;;;14.40;5.00;;;6.50;99.90;;;;;;5107349;27;20130;-66
2023/01/30 03:33:34;;;;;;;23.58;6.25;;;6.50;99.90;;;;;;5103351;27;20055;-66
2023/01/30 03:36:00;;;;;;;22.13;5.93;;;6.60;99.90;;;;;;5106680;27;20050;-66
2023/01/30 03:38:26;;;;;;;22.95;5.32;;;6.60;99.90;;;;;;5102789;28;20036;-66
2023/01/30 03:40:52;;;;;;;17.20;6.15;;;6.60;99.90;;;;;;5102780;28;20079;-65
2023/01/30 03:43:17;;;;;;;20.33;5.35;;;6.60;99.90;;;;;;5097806;28;20438;-65
2023/01/30 03:45:43;;;;;;;13.65;5.30;;;6.70;99.90;;;;;;5098516;28;20473;-67
2023/01/30 03:48:09;;;;;;;19.27;4.93;;;6.70;99.90;;;;;;5101843;28;20083;-66
2023/01/30 03:50:34;;;;;;;18.83;5.15;;;6.70;99.90;;;;;;5100728;28;20048;-66
2023/01/30 03:53:00;;;;;;;18.02;5.72;;;6.80;99.90;;;;;;5109811;28;20032;-65
2023/01/30 03:55:26;;;;;;;22.42;5.72;;;6.80;99.90;;;;;;5102925;27;20942;-66
2023/01/30 03:57:57;;;;;;;18.65;4.38;;;6.80;99.90;;;;;;5118348;27;20122;-67
2023/01/30 04:00:23;;;;;;;17.35;3.85;;;6.80;99.90;;;;;;5099495;28;20148;-66
2023/01/30 04:02:49;;;;;;;19.33;4.03;;;6.80;99.90;;;;;;5104508;28;20035;-65
2023/01/30 04:05:15;;;;;;;21.50;4.47;;;6.80;99.90;;;;;;5101942;28;20036;-65
2023/01/30 04:07:40;;;;;;;19.52;3.75;;;6.80;99.90;;;;;;5101905;28;20079;-66
2023/01/30 04:10:07;;;;;;;17.73;3.38;;;6.80;99.90;;;;;;5100433;28;20130;-65
2023/01/30 04:12:32;;;;;;;21.33;4.57;;;6.80;99.90;;;;;;5098951;28;20039;-66
2023/01/30 04:14:58;;;;;;;21.88;4.32;;;6.80;99.90;;;;;;5100876;28;20067;-66
2023/01/30 04:17:24;;;;;;;18.08;4.20;;;6.80;99.90;;;;;;5107243;28;20027;-65
2023/01/30 04:19:49;;;;;;;20.17;4.28;;;6.80;99.90;;;;;;5100020;27;20044;-66
2023/01/30 04:22:15;;;;;;;14.20;3.97;;;6.80;99.90;;;;;;5099857;27;20790;-66
2023/01/30 04:24:40;;;;;;;21.10;4.65;;;6.80;99.90;;;;;;5099910;28;20050;-67
2023/01/30 04:27:08;;;;;;;14.02;3.47;;;6.80;99.90;;;;;;5099434;28;20134;-67
2023/01/30 04:29:34;;;;;;;22.65;4.90;;;6.80;99.90;;;;;;5098059;28;20048;-65
2023/01/30 04:31:59;;;;;;;23.35;3.95;;;6.80;99.90;;;;;;5106967;28;20036;-65
2023/01/30 04:34:25;;;;;;;17.95;3.63;;;6.80;99.90;;;;;;5116670;27;20055;-66
2023/01/30 04:36:50;;;;;;;17.10;3.08;;;6.80;99.90;;;;;;5101665;28;20185;-65
2023/01/30 04:39:16;;;;;;;19.65;3.40;;;6.90;99.90;;;;;;5113444;27;20044;-65
2023/01/30 04:41:42;;;;;;;16.27;3.20;;;6.90;99.90;;;;;;5107612;27;20040;-66
2023/01/30 04:44:07;;;;;;;13.43;4.25;;;6.80;99.90;;;;;;5105776;28;20044;-66
2023/01/30 04:46:33;;;;;;;20.75;4.03;;;6.90;99.90;;;;;;5103280;28;20039;-65
2023/01/30 04:48:59;;;;;;;19.48;3.03;;;6.80;99.90;;;;;;5104539;28;20402;-66
2023/01/30 04:51:24;;;;;;;15.77;2.75;;;6.80;99.90;;;;;;5113884;27;20051;-65
2023/01/30 04:53:50;;;;;;;19.33;3.08;;;6.80;99.90;;;;;;5105400;28;20058;-65
2023/01/30 04:56:16;;;;;;;17.20;2.70;;;6.70;99.90;;;;;;5107542;28;20035;-65
2023/01/30 04:58:41;;;;;;;15.50;2.60;;;6.60;99.90;;;;;;5102063;28;20092;-66
2023/01/30 05:01:22;;;;;;;15.43;2.80;;;6.60;99.90;;;;;;5106330;28;20036;-66
2023/01/30 05:03:52;;;;;;;17.30;3.05;;;6.60;99.90;;;;;;5082665;28;20043;-66
2023/01/30 05:06:19;;;;;;;19.67;3.80;;;6.60;99.90;;;;;;5100969;28;20043;-66
2023/01/30 05:08:48;;;;;;;19.38;3.38;;;6.50;99.90;;;;;;5098036;28;20134;-66
2023/01/30 05:11:14;;;;;;;21.10;3.33;;;6.50;99.90;;;;;;5100684;28;20040;-66
2023/01/30 05:13:39;;;;;;;15.43;2.85;;;6.40;99.90;;;;;;5098006;28;20040;-66
2023/01/30 05:16:05;;;;;;;19.05;3.30;;;6.30;99.90;;;;;;5102260;28;20040;-66
2023/01/30 05:18:31;;;;;;;16.58;2.85;;;6.30;99.90;;;;;;5106502;28;20478;-66
2023/01/30 05:21:14;;;;;;;15.13;3.13;;;6.20;99.90;;;;;;5089157;28;20092;-66
2023/01/30 05:23:41;;;;;;;19.02;3.50;;;6.20;99.90;;;;;;5110324;28;20506;-66
2023/01/30 05:26:07;;;;;;;23.27;4.65;;;6.20;99.90;;;;;;5112059;27;20050;-67
2023/01/30 05:28:33;;;;;;;21.48;4.35;;;6.10;99.90;;;;;;5108308;28;20039;-65
2023/01/30 05:31:07;;;;;;;22.60;2.92;;;6.10;99.90;;;;;;5117796;27;20047;-66
2023/01/30 05:33:33;;;;;;;18.45;3.75;;;6.10;99.90;;;;;;5119170;27;20134;-66
2023/01/30 05:35:59;;;;;;;17.48;3.78;;;6.00;99.90;;;;;;5105547;28;20127;-65
2023/01/30 05:38:25;;;;;;;19.75;3.97;;;6.00;99.90;;;;;;5104314;27;20082;-66
2023/01/30 05:41:02;;;;;;;25.92;6.00;;;6.00;99.90;;;;;;5110228;28;20077;-66
2023/01/30 05:43:28;;;;;;;27.05;3.88;;;6.00;99.90;;;;;;5102538;27;20092;-66
2023/01/30 05:45:55;;;;;;;30.42;4.65;;;5.90;99.90;;;;;;5085354;28;20070;-66
2023/01/30 05:48:22;;;;;;;23.02;3.55;;;5.90;99.90;;;;;;5106105;27;20058;-65
2023/01/30 05:50:52;;;;;;;20.05;4.38;;;5.90;99.90;;;;;;5120022;27;20043;-67
2023/01/30 05:53:18;;;;;;;14.65;3.05;;;5.90;99.90;;;;;;5109218;27;20809;-67
2023/01/30 05:55:44;;;;;;;18.85;3.05;;;5.80;99.90;;;;;;5110439;28;20035;-66
2023/01/30 05:58:10;;;;;;;22.67;3.50;;;5.80;99.90;;;;;;5108901;27;20367;-66
2023/01/30 06:00:36;;;;;;;23.02;4.13;;;5.80;99.90;;;;;;5128763;27;20088;-65
2023/01/30 06:03:01;;;;;;;21.95;3.35;;;5.80;99.90;;;;;;5101859;27;20059;-65
2023/01/30 06:05:27;;;;;;;19.67;3.08;;;5.70;99.90;;;;;;5107637;28;20478;-67
2023/01/30 06:07:52;;;;;;;24.48;3.20;;;5.70;99.90;;;;;;5106577;28;20044;-66
2023/01/30 06:10:18;;;;;;;22.13;3.38;;;5.70;99.90;;;;;;5099515;28;20028;-65
2023/01/30 06:12:44;;;;;;;23.45;3.42;;;5.70;99.90;;;;;;5107829;28;20044;-66
2023/01/30 06:15:10;;;;;;;15.93;2.70;;;5.60;99.90;;;;;;5109661;28;20036;-66
2023/01/30 06:17:36;;;;;;;19.13;3.40;;;5.70;99.90;;;;;;5109253;27;20038;-65
2023/01/30 06:20:02;;;;;;;20.02;3.17;;;5.60;99.90;;;;;;5114342;27;21186;-66
2023/01/30 06:22:27;;;;;;;21.25;3.38;;;5.60;99.90;;;;;;5112213;27;20047;-66
2023/01/30 06:24:53;;;;;;;19.23;3.15;;;5.60;99.90;;;;;;5117866;27;20039;-66
2023/01/30 06:27:19;;;;;;;22.63;3.78;;;5.60;99.90;;;;;;5109519;28;20425;-67
2023/01/30 06:29:44;;;;;;;26.83;4.22;;;5.60;99.90;;;;;;5109580;27;20554;-67
2023/01/30 06:32:10;;;;;;;22.48;4.10;;;5.50;99.90;;;;;;5106828;28;20035;-66
2023/01/30 06:34:36;;;;;;;22.00;4.05;;;5.50;99.90;;;;;;5107958;27;20047;-67
2023/01/30 06:37:01;;;;;;;18.33;3.78;;;5.50;99.90;;;;;;5105616;27;20114;-67
2023/01/30 06:39:27;;;;;;;21.40;3.58;;;5.50;99.90;;;;;;5129556;27;20043;-66
2023/01/30 06:41:52;;;;;;;25.38;3.97;;;5.50;99.90;;;;;;5109718;28;20039;-67
2023/01/30 06:44:18;;;;;;;19.00;3.78;;;5.60;99.90;;;;;;5108978;28;20114;-67
2023/01/30 06:46:44;;;;;;;24.17;3.35;;;5.70;99.90;;;;;;5108989;28;20132;-67
2023/01/30 06:49:10;;;;;;;21.58;3.47;;;5.70;99.90;;;;;;5130871;27;20043;-67
2023/01/30 06:51:36;;;;;;;25.08;3.40;;;5.80;99.90;;;;;;5114200;27;20478;-67
2023/01/30 06:54:01;;;;;;;20.05;3.45;;;5.80;99.90;;;;;;5123526;27;20039;-66
2023/01/30 06:56:27;;;;;;;21.67;3.53;;;5.80;99.90;;;;;;5124053;27;20042;-66
2023/01/30 06:58:53;;;;;;;23.50;3.80;;;5.80;99.90;;;;;;5110631;28;20035;-67
2023/01/30 07:01:20;;;;;;;23.02;3.13;;;5.80;99.90;;;;;;5124675;27;20067;-67
2023/01/30 07:03:46;;;;;;;20.45;3.85;;;5.80;99.90;;;;;;5117494;27;20051;-67
2023/01/30 07:06:11;;;;;;;18.38;3.22;;;5.80;99.90;;;;;;5108672;27;20479;-66
2023/01/30 07:08:37;;;;;;;26.80;3.10;;;5.80;99.90;;;;;;5119389;27;20039;-67
2023/01/30 07:11:04;;;;;;;24.25;4.38;;;5.70;99.90;;;;;;5126646;27;20035;-67
2023/01/30 07:13:29;;;;;;;27.65;3.67;;;5.70;99.90;;;;;;5094328;28;20127;-67
2023/01/30 07:15:55;;;;;;;22.38;3.97;;;5.60;99.90;;;;;;5113392;27;20114;-67
2023/01/30 07:18:21;;;;;;;25.90;3.05;;;5.60;99.90;;;;;;5113739;27;20036;-66
2023/01/30 07:20:47;;;;;;;18.00;3.45;;;5.70;99.90;;;;;;5127368;27;20084;-66
2023/01/30 07:23:13;;;;;;;32.00;5.25;;;5.60;99.90;;;;;;5108450;28;20043;-67
2023/01/30 07:25:39;;;;;;;19.75;3.83;;;5.60;99.90;;;;;;5112980;27;20545;-66
2023/01/30 07:28:04;;;;;;;23.23;3.38;;;5.60;99.90;;;;;;5130511;27;20084;-67
2023/01/30 07:30:32;;;;;;;21.67;4.22;;;5.60;99.90;;;;;;5130313;27;20396;-66
2023/01/30 07:32:59;;;;;;;25.02;4.28;;;5.60;99.90;;;;;;5094496;28;20047;-67
2023/01/30 07:35:27;;;;;;;20.15;3.30;;;5.60;99.90;;;;;;5122754;27;20486;-66
2023/01/30 07:37:53;;;;;;;25.20;4.47;;;5.60;99.90;;;;;;5101578;28;20035;-66
2023/01/30 07:40:19;;;;;;;22.20;4.68;;;5.70;99.90;;;;;;5113659;27;20116;-66
2023/01/30 07:42:59;;;;;;;21.65;2.92;;;5.70;99.90;;;;;;5121020;27;20545;-67
2023/01/30 07:45:30;;;;;;;25.15;4.25;;;5.70;99.90;;;;;;5129230;27;20035;-66
2023/01/30 07:47:56;;;;;;;21.45;3.60;;;5.70;99.90;;;;;;5130002;27;20121;-66
2023/01/30 07:50:21;;;;;;;21.27;3.42;;;5.80;99.90;;;;;;5131573;27;20517;-67
2023/01/30 07:52:47;;;;;;;23.40;3.72;;;5.80;99.90;;;;;;5128309;27;20091;-66
2023/01/30 07:55:13;;;;;;;21.00;3.78;;;5.80;99.90;;;;;;5117310;27;20503;-67
2023/01/30 07:57:38;;;;;;;22.00;3.40;;;5.80;99.90;;;;;;5117403;27;20096;-69
2023/01/30 08:00:05;;;;;;;25.13;5.55;;;5.80;99.90;;;;;;5109173;28;20091;-68
2023/01/30 08:02:30;;;;;;;24.92;4.80;;;5.90;99.90;;;;;;5109941;27;20397;-67
2023/01/30 08:04:56;;;;;;;27.08;4.95;;;5.80;99.90;;;;;;5113643;27;20040;-67
2023/01/30 08:07:21;;;;;;;26.33;3.88;;;5.90;99.90;;;;;;5111546;27;20054;-67
2023/01/30 08:09:47;;;;;;;25.95;3.80;;;5.90;99.90;;;;;;5129767;27;20504;-67
2023/01/30 08:12:12;;;;;;;27.33;4.13;;;5.90;99.90;;;;;;5129523;27;20520;-68
2023/01/30 08:14:38;;;;;;;22.73;3.90;;;5.90;99.90;;;;;;5111622;27;20044;-67
2023/01/30 08:17:04;;;;;;;22.23;3.70;;;6.00;99.90;;;;;;5128076;27;20035;-69
2023/01/30 08:19:29;;;;;;;20.75;3.63;;;6.00;99.90;;;;;;5129772;27;20035;-69
2023/01/30 08:21:57;;;;;;;23.42;3.92;;;6.00;99.90;;;;;;5129025;27;20038;-69
2023/01/30 08:24:23;;;;;;;25.05;4.05;;;6.10;99.90;;;;;;5127240;27;20050;-68
2023/01/30 08:26:48;;;;;;;27.73;3.75;;;6.10;99.90;;;;;;5108683;28;20417;-69
2023/01/30 08:29:14;;;;;;;30.45;4.18;;;6.10;99.90;;;;;;5128165;27;20050;-69
2023/01/30 08:31:40;;;;;;;30.80;4.75;;;6.10;99.90;;;;;;5129191;27;20129;-68
2023/01/30 08:34:05;;;;;;;27.58;5.32;;;6.10;99.90;;;;;;5121257;27;20058;-69
2023/01/30 08:36:31;;;;;;;25.65;3.45;;;6.20;99.90;;;;;;5109665;28;20058;-68
2023/01/30 08:38:57;;;;;;;23.92;4.00;;;6.10;99.90;;;;;;5113139;27;20494;-70
2023/01/30 08:41:22;;;;;;;29.60;3.83;;;6.10;99.90;;;;;;5128248;27;20082;-69
2023/01/30 08:43:48;;;;;;;23.02;4.07;;;6.10;99.90;;;;;;5112252;27;20134;-70
2023/01/30 08:46:14;;;;;;;24.90;4.85;;;6.10;99.90;;;;;;5124586;27;20043;-68
2023/01/30 08:48:42;;;;;;;24.48;4.00;;;6.10;99.90;;;;;;5128193;27;20091;-68
2023/01/30 08:51:07;;;;;;;18.00;3.70;;;6.20;99.90;;;;;;5129008;27;20049;-68
2023/01/30 08:53:33;;;;;;;26.15;4.38;;;6.20;99.90;;;;;;5128647;27;20446;-67
2023/01/30 08:55:58;;;;;;;20.80;3.20;;;6.20;99.90;;;;;;5128993;27;20031;-68
2023/01/30 08:58:24;;;;;;;30.58;4.43;;;6.20;99.90;;;;;;5094020;28;20047;-67
2023/01/30 09:00:50;;;;;;;21.20;3.53;;;6.30;99.90;;;;;;5127729;28;20042;-69
2023/01/30 09:03:17;;;;;;;24.40;4.05;;;6.30;99.90;;;;;;5111987;28;20031;-69
2023/01/30 09:05:43;;;;;;;22.67;4.22;;;6.30;99.90;;;;;;5111965;28;20073;-69
2023/01/30 09:08:08;;;;;;;22.75;3.58;;;6.30;99.90;;;;;;5119837;28;20071;-70
2023/01/30 09:10:35;;;;;;;23.25;4.22;;;6.40;99.90;;;;;;5115353;28;20160;-70
2023/01/30 09:13:00;;;;;;;24.48;4.07;;;6.40;99.90;;;;;;5128283;27;20039;-69
2023/01/30 09:15:26;;;;;;;21.77;3.55;;;6.40;99.90;;;;;;5128514;28;20039;-69
2023/01/30 09:17:52;;;;;;;20.92;3.78;;;6.40;99.90;;;;;;5127627;28;20108;-70
2023/01/30 09:20:19;;;;;;;18.50;3.20;;;6.40;99.90;;;;;;5107905;28;20040;-68
2023/01/30 09:22:45;;;;;;;26.85;4.40;;;6.40;99.90;;;;;;5127650;27;20031;-69
2023/01/30 09:25:11;;;;;;;24.33;3.97;;;6.50;99.90;;;;;;5128604;28;20046;-69
2023/01/30 09:27:37;;;;;;;21.92;3.72;;;6.50;99.90;;;;;;5128637;28;20043;-71
2023/01/30 09:30:04;;;;;;;23.92;4.78;;;6.50;99.90;;;;;;5120993;28;20046;-68
2023/01/30 09:32:30;;;;;;;21.42;3.72;;;6.50;99.90;;;;;;5128023;28;20480;-68
2023/01/30 09:34:55;;;;;;;24.70;3.65;;;6.50;99.90;;;;;;5128149;28;20044;-69
2023/01/30 09:37:21;;;;;;;26.20;3.30;;;6.50;99.90;;;;;;5128722;28;20045;-69
2023/01/30 09:39:47;;;;;;;25.70;3.78;;;6.50;99.90;;;;;;5127678;28;20054;-67
2023/01/30 09:42:53;;;;;;;27.23;5.70;;;6.50;99.90;;;;;;5107762;28;20040;-67
2023/01/30 09:45:39;;;;;;;27.08;3.75;;;6.60;99.90;;;;;;5092009;27;20040;-69
2023/01/30 09:48:11;;;;;;;26.60;4.65;;;6.70;99.90;;;;;;5107186;28;20123;-69
2023/01/30 09:50:49;;;;;;;25.65;3.95;;;6.80;99.90;;;;;;5125225;28;20039;-69
2023/01/30 09:53:43;;;;;;;21.73;4.10;;;6.80;99.90;;;;;;5107178;28;20084;-67
2023/01/30 09:56:09;;;;;;;23.02;5.15;;;6.80;99.90;;;;;;5009572;28;20046;-70
2023/01/30 09:58:47;;;;;;;22.48;4.28;;;6.80;99.90;;;;;;5009297;28;20099;-68
2023/01/30 10:01:21;;;;;;;21.00;3.47;;;6.90;99.90;;;;;;5009284;28;20045;-68
2023/01/30 10:03:58;;;;;;;24.77;4.43;;;7.00;99.90;;;;;;5007151;28;20060;-69
2023/01/30 10:06:24;;;;;;;22.63;4.05;;;7.00;99.90;;;;;;5009809;28;20048;-70
2023/01/30 10:09:08;;;;;;;26.13;4.30;;;7.10;99.90;;;;;;4993484;28;20045;-67
2023/01/30 10:11:42;;;;;;;23.70;3.90;;;7.10;99.90;;;;;;5013134;28;20051;-69
2023/01/30 10:14:39;;;;;;;23.00;3.88;;;7.10;99.90;;;;;;4996158;28;20080;-68
2023/01/30 10:17:13;;;;;;;21.48;3.58;;;7.10;99.90;;;;;;5012807;28;20071;-69
2023/01/30 10:20:01;;;;;;;23.67;4.43;;;7.10;99.90;;;;;;5012704;28;20041;-70
2023/01/30 10:22:44;;;;;;;26.75;3.88;;;7.20;99.90;;;;;;4996823;28;20037;-67
2023/01/30 10:25:33;;;;;;;26.80;4.40;;;7.20;99.90;;;;;;5012145;28;20482;-68
2023/01/30 10:28:05;;;;;;;23.38;3.67;;;7.50;99.90;;;;;;5012839;28;20061;-69
2023/01/30 10:30:33;;;;;;;22.90;4.05;;;7.60;99.90;;;;;;5013337;28;20049;-69
2023/01/30 10:33:14;;;;;;;27.33;3.92;;;7.50;99.90;;;;;;5048239;28;20460;-70
2023/01/30 10:35:41;;;;;;;21.63;4.13;;;7.50;99.90;;;;;;5110711;28;20044;-68
2023/01/30 10:38:24;;;;;;;23.42;4.00;;;7.60;99.90;;;;;;5130291;27;20035;-69
2023/01/30 10:41:11;;;;;;;21.88;3.97;;;7.60;99.90;;;;;;5131642;27;20039;-68
2023/01/30 10:43:42;;;;;;;23.48;3.65;;;7.70;99.90;;;;;;5129691;27;20051;-71
2023/01/30 10:46:29;;;;;;;31.13;4.15;;;7.70;99.90;;;;;;5110886;27;20375;-69
2023/01/30 10:49:20;;;;;;;22.50;4.32;;;7.70;99.90;;;;;;5130306;27;20039;-69
2023/01/30 10:52:17;;;;;;;21.02;4.40;;;7.70;99.90;;;;;;5131395;27;20043;-69
2023/01/30 10:55:03;;;;;;;21.05;4.57;;;7.70;99.90;;;;;;5115066;27;20122;-69
2023/01/30 10:57:39;;;;;;;25.42;5.63;;;7.60;99.90;;;;;;5131363;27;20405;-68
2023/01/30 11:00:10;;;;;;;24.15;4.63;;;7.50;99.90;;;;;;5130907;27;20039;-69
2023/01/30 11:02:54;;;;;;;19.50;3.42;;;7.50;99.90;;;;;;5131255;27;20035;-70
2023/01/30 11:05:23;;;;;;;22.05;4.20;;;7.50;99.90;;;;;;5128780;27;20031;-68
2023/01/30 11:07:49;;;;;;;17.42;3.38;;;7.50;99.90;;;;;;5109848;28;20051;-68
2023/01/30 11:10:23;;;;;;;22.45;4.43;;;7.50;99.90;;;;;;5129411;27;20553;-67
2023/01/30 11:12:57;;;;;;;27.50;4.40;;;7.50;99.90;;;;;;5130764;27;20104;-67
2023/01/30 11:15:24;;;;;;;28.67;4.95;;;7.50;99.90;;;;;;5130544;27;20043;-69
2023/01/30 11:17:50;;;;;;;23.63;4.50;;;7.60;99.90;;;;;;5113070;27;20043;-69
2023/01/30 11:20:23;;;;;;;26.50;4.18;;;7.60;99.90;;;;;;5129550;27;20046;-67
2023/01/30 11:23:20;;;;;;;26.42;4.30;;;7.50;99.90;;;;;;5130783;27;20059;-70
2023/01/30 11:25:49;;;;;;;25.50;4.65;;;7.50;99.90;;;;;;5131857;27;20043;-69
2023/01/30 11:28:18;;;;;;;32.92;4.65;;;7.50;99.90;;;;;;5114553;27;20035;-68
2023/01/30 11:30:51;;;;;;;32.58;5.65;;;7.50;99.90;;;;;;5130241;27;20035;-69
2023/01/30 11:33:20;;;;;;;38.38;4.78;;;7.50;99.90;;;;;;5130038;27;20039;-69
2023/01/30 11:35:55;;;;;;;30.15;5.47;;;7.60;99.90;;;;;;5130557;27;20107;-69
2023/01/30 11:38:33;;;;;;;31.42;5.32;;;7.60;99.90;;;;;;5107578;27;20059;-69
2023/01/30 11:41:08;;;;;;;21.33;3.83;;;7.60;99.90;;;;;;5126711;27;20402;-69
2023/01/30 11:43:36;;;;;;;25.33;4.28;;;7.70;99.90;;;;;;5118442;27;20032;-68
2023/01/30 11:46:02;;;;;;;23.85;4.43;;;7.70;99.90;;;;;;5129899;27;20485;-68
2023/01/30 11:48:31;;;;;;;26.70;4.38;;;7.80;99.90;;;;;;5124087;27;20447;-68
2023/01/30 11:51:04;;;;;;;28.55;4.38;;;7.70;99.90;;;;;;5128645;27;20075;-69
2023/01/30 11:53:40;;;;;;;30.13;4.68;;;7.70;99.90;;;;;;5112901;27;20035;-69
2023/01/30 11:56:21;;;;;;;25.30;4.28;;;7.70;99.90;;;;;;5116755;27;20040;-67
2023/01/30 11:58:57;;;;;;;23.98;3.97;;;7.70;99.90;;;;;;5124699;27;20047;-70
2023/01/30 12:01:32;;;;;;;20.95;4.57;;;7.70;99.90;;;;;;5109383;28;20032;-67
2023/01/30 12:04:00;;;;;;;26.38;3.88;;;7.70;99.90;;;;;;5128888;27;20046;-68
2023/01/30 12:06:32;;;;;;;25.15;4.35;;;7.70;99.90;;;;;;5128464;27;20122;-67
2023/01/30 12:08:58;;;;;;;27.25;4.93;;;7.70;99.90;;;;;;5128177;27;20482;-68
2023/01/30 12:11:29;;;;;;;20.02;3.95;;;7.70;99.90;;;;;;5108260;27;20035;-68
2023/01/30 12:14:17;;;;;;;12.95;2.88;;;7.60;99.90;;;;;;5109289;27;20043;-67
2023/01/30 12:16:53;;;;;;;17.95;3.00;;;7.20;99.90;;;;;;5109572;27;20486;-67
2023/01/30 12:19:48;;;;;;;22.20;4.78;;;7.00;99.90;;;;;;5120100;27;20488;-67
2023/01/30 12:22:40;;;;;;;22.88;3.58;;;7.70;99.90;;;;;;5010048;28;20049;-67
2023/01/30 12:25:15;;;;;;;27.48;4.43;;;8.80;99.90;;;;;;5008192;28;20049;-68
2023/01/30 12:28:24;;;;;;;24.98;4.28;;;8.40;99.90;;;;;;5027440;28;20045;-68
2023/01/30 12:30:57;;;;;;;20.77;4.78;;;8.10;99.90;;;;;;4992481;28;20049;-66
2023/01/30 12:33:28;;;;;;;21.77;3.33;;;7.80;99.90;;;;;;5017073;28;20092;-67
2023/01/30 12:36:18;;;;;;;21.73;3.55;;;7.50;99.90;;;;;;5022779;28;20045;-67
2023/01/30 12:39:04;;;;;;;17.40;4.03;;;7.20;99.90;;;;;;5013745;28;20041;-66
2023/01/30 12:41:54;;;;;;;13.63;2.50;;;7.10;99.90;;;;;;5013994;28;20037;-67
2023/01/30 12:44:59;;;;;;;12.02;2.00;;;7.60;99.90;;;;;;5020481;28;20504;-67
2023/01/30 12:47:36;;;;;;;7.90;1.48;;;8.60;99.90;;;;;;4943936;28;20086;-66
2023/01/30 12:50:32;;;;;;;10.95;2.35;;;8.40;99.90;;;;;;4938597;29;20068;-68
2023/01/30 12:53:22;;;;;;;12.35;2.42;;;8.70;99.90;;;;;;4949326;28;20503;-67
2023/01/30 12:56:20;;;;;;;8.48;1.77;;;9.20;99.90;;;;;;4960783;28;20054;-66
2023/01/30 12:59:04;;;;;;;13.52;2.00;;;9.90;99.90;;;;;;5002649;28;20531;-68
2023/01/30 13:01:56;;;;;;;13.77;2.17;;;9.90;99.90;;;;;;5030518;28;20495;-67
2023/01/30 13:05:08;;;;;;;13.23;3.33;;;9.70;99.90;;;;;;5033787;28;20450;-67
2023/01/30 13:07:42;;;;;;;14.30;3.42;;;9.60;99.90;;;;;;5030520;28;20705;-68
2023/01/30 13:10:32;;;;;;;15.40;2.78;;;9.90;99.90;;;;;;5030592;28;20135;-68
2023/01/30 13:13:01;;;;;;;16.10;3.05;;;9.30;99.90;;;;;;5023567;28;20056;-66
2023/01/30 13:15:57;;;;;;;17.73;2.63;;;8.90;99.90;;;;;;5029551;28;20115;-68